createdAt,value
2018-05-07T00:00:10.830Z,15.70
2018-05-07T00:02:38.374Z,15.60
2018-05-07T00:05:05.905Z,15.50
2018-05-07T00:07:33.494Z,15.40
2018-05-07T00:10:15.306Z,15.40
2018-05-07T00:12:42.879Z,15.40
2018-05-07T00:15:10.404Z,15.40
2018-05-07T00:17:38.712Z,15.30
2018-05-07T00:20:06.290Z,15.20
2018-05-07T00:22:33.807Z,15.20
2018-05-07T00:25:01.354Z,15.30
2018-05-07T00:27:29.686Z,15.40
2018-05-07T00:29:57.223Z,15.40
2018-05-07T00:32:24.742Z,15.40
2018-05-07T00:34:53.111Z,15.30
2018-05-07T00:37:20.611Z,15.30
2018-05-07T00:39:48.240Z,15.30
2018-05-07T00:42:15.790Z,15.20
2018-05-07T00:44:44.090Z,15.10
2018-05-07T00:47:11.667Z,15.10
2018-05-07T00:49:39.301Z,15.20
2018-05-07T00:52:07.617Z,15.10
2018-05-07T00:54:46.870Z,15.10
2018-05-07T00:57:14.434Z,15.00
2018-05-07T00:59:41.962Z,14.90
2018-05-07T01:02:09.504Z,14.90
2018-05-07T01:04:37.072Z,14.80
2018-05-07T01:07:04.586Z,14.70
2018-05-07T01:09:32.151Z,14.70
2018-05-07T01:12:00.471Z,14.70
2018-05-07T01:14:27.994Z,14.70
2018-05-07T01:16:56.282Z,14.70
2018-05-07T01:19:23.843Z,14.70
2018-05-07T01:21:51.366Z,14.50
2018-05-07T01:24:18.890Z,14.50
2018-05-07T01:26:46.435Z,14.40
2018-05-07T01:29:13.967Z,14.30
2018-05-07T01:31:42.634Z,14.20
2018-05-07T01:34:10.237Z,14.20
2018-05-07T01:36:37.766Z,14.20
2018-05-07T01:39:05.405Z,14.20
2018-05-07T01:41:32.945Z,14.10
2018-05-07T01:44:00.474Z,14.10
2018-05-07T01:46:27.998Z,14.00
2018-05-07T01:48:56.286Z,14.10
2018-05-07T01:51:24.603Z,14.00
2018-05-07T01:53:52.143Z,14.00
2018-05-07T01:59:16.041Z,13.90
2018-05-07T02:01:43.580Z,14.00
2018-05-07T02:04:11.114Z,13.90
2018-05-07T02:06:39.434Z,13.70
2018-05-07T02:09:07.800Z,13.70
2018-05-07T02:11:35.434Z,13.60
2018-05-07T02:14:03.735Z,13.60
2018-05-07T02:16:31.257Z,13.60
2018-05-07T02:18:58.810Z,13.60
2018-05-07T02:21:26.494Z,13.50
2018-05-07T02:23:54.051Z,13.50
2018-05-07T02:26:21.645Z,13.40
2018-05-07T02:28:49.171Z,13.50
2018-05-07T02:31:31.023Z,13.50
2018-05-07T02:33:58.571Z,13.60
2018-05-07T02:36:26.148Z,13.60
2018-05-07T02:38:53.752Z,13.50
2018-05-07T02:41:21.252Z,13.40
2018-05-07T02:43:48.793Z,13.40
2018-05-07T02:46:16.319Z,13.40
2018-05-07T02:48:43.912Z,13.50
2018-05-07T02:51:11.442Z,13.40
2018-05-07T02:53:38.988Z,13.40
2018-05-07T02:56:07.333Z,13.40
2018-05-07T02:58:34.886Z,13.40
2018-05-07T03:01:02.422Z,13.50
2018-05-07T03:03:29.988Z,13.50
2018-05-07T03:05:57.555Z,13.50
2018-05-07T03:08:25.082Z,13.50
2018-05-07T03:10:52.643Z,13.60
2018-05-07T03:13:20.239Z,13.60
2018-05-07T03:15:47.746Z,13.60
2018-05-07T03:18:16.048Z,13.70
2018-05-07T03:20:43.637Z,13.60
2018-05-07T03:23:11.211Z,13.70
2018-05-07T03:25:38.754Z,13.60
2018-05-07T03:28:06.299Z,13.60
2018-05-07T03:30:33.896Z,13.50
2018-05-07T03:33:01.430Z,13.60
2018-05-07T03:35:28.941Z,13.60
2018-05-07T03:37:56.524Z,13.50
2018-05-07T03:40:24.137Z,13.50
2018-05-07T03:42:51.617Z,13.50
2018-05-07T03:45:19.158Z,13.40
2018-05-07T03:47:46.722Z,13.30
2018-05-07T03:50:15.212Z,13.20
2018-05-07T03:52:42.787Z,13.10
2018-05-07T03:55:10.348Z,13.00
2018-05-07T03:57:37.958Z,13.00
2018-05-07T04:00:10.570Z,13.00
2018-05-07T04:02:38.114Z,13.00
2018-05-07T04:05:06.406Z,13.00
2018-05-07T04:07:33.960Z,13.00
2018-05-07T04:10:01.650Z,13.00
2018-05-07T04:12:29.191Z,13.00
2018-05-07T04:14:56.726Z,12.90
2018-05-07T04:17:36.169Z,12.90
2018-05-07T04:20:15.411Z,13.00
2018-05-07T04:22:54.826Z,13.00
2018-05-07T04:25:22.346Z,13.00
2018-05-07T04:27:49.878Z,13.00
2018-05-07T04:30:17.538Z,13.10
2018-05-07T04:32:45.079Z,13.00
2018-05-07T04:35:13.375Z,12.90
2018-05-07T04:37:40.949Z,12.90
2018-05-07T04:40:08.494Z,12.80
2018-05-07T04:42:36.039Z,12.70
2018-05-07T04:45:03.599Z,12.60
2018-05-07T04:47:31.139Z,12.50
2018-05-07T04:49:58.683Z,12.50
2018-05-07T04:52:26.266Z,12.50
2018-05-07T04:54:53.838Z,12.40
2018-05-07T04:57:21.358Z,12.40
2018-05-07T04:59:48.963Z,12.40
2018-05-07T05:02:16.514Z,12.40
2018-05-07T05:04:44.059Z,12.40
2018-05-07T05:07:11.647Z,12.40
2018-05-07T05:09:39.936Z,12.50
2018-05-07T05:12:07.488Z,12.50
2018-05-07T05:14:35.015Z,12.60
2018-05-07T05:17:03.323Z,12.60
2018-05-07T05:19:30.858Z,12.60
2018-05-07T05:21:58.407Z,12.40
2018-05-07T05:24:25.970Z,12.30
2018-05-07T05:26:53.532Z,12.30
2018-05-07T05:29:21.837Z,12.40
2018-05-07T05:31:49.407Z,12.40
2018-05-07T05:34:16.938Z,12.40
2018-05-07T05:36:44.463Z,12.40
2018-05-07T05:39:12.017Z,12.30
2018-05-07T05:41:39.592Z,12.30
2018-05-07T05:44:07.131Z,12.30
2018-05-07T05:46:34.681Z,12.40
2018-05-07T05:49:02.250Z,12.40
2018-05-07T05:51:29.798Z,12.40
2018-05-07T05:53:57.307Z,12.50
2018-05-07T05:56:24.994Z,12.60
2018-05-07T05:58:52.408Z,12.60
2018-05-07T06:01:19.962Z,12.70
2018-05-07T06:03:47.600Z,12.70
2018-05-07T06:06:15.084Z,12.70
2018-05-07T06:08:42.614Z,12.80
2018-05-07T06:11:24.695Z,12.80
2018-05-07T06:13:52.218Z,12.90
2018-05-07T06:16:19.762Z,12.90
2018-05-07T06:18:48.079Z,12.90
2018-05-07T06:21:15.717Z,12.80
2018-05-07T06:23:43.185Z,12.80
2018-05-07T06:26:10.698Z,12.80
2018-05-07T06:28:38.226Z,12.80
2018-05-07T06:31:05.785Z,12.90
2018-05-07T06:33:33.319Z,13.00
2018-05-07T06:36:00.863Z,13.00
2018-05-07T06:38:29.835Z,13.10
2018-05-07T06:40:57.375Z,13.10
2018-05-07T06:43:24.907Z,13.10
2018-05-07T06:45:52.595Z,13.10
2018-05-07T06:48:20.056Z,13.20
2018-05-07T06:50:48.589Z,13.20
2018-05-07T06:53:16.130Z,13.20
2018-05-07T06:55:43.663Z,13.20
2018-05-07T06:58:11.972Z,13.30
2018-05-07T07:00:39.535Z,13.30
2018-05-07T07:03:07.149Z,13.30
2018-05-07T07:05:34.682Z,13.40
2018-05-07T07:08:02.303Z,13.40
2018-05-07T07:10:29.797Z,13.40
2018-05-07T07:12:57.332Z,13.50
2018-05-07T07:15:24.880Z,13.50
2018-05-07T07:17:52.439Z,13.50
2018-05-07T07:20:19.967Z,13.60
2018-05-07T07:22:47.533Z,13.80
2018-05-07T07:25:15.826Z,14.50
2018-05-07T07:27:43.362Z,14.50
2018-05-07T07:30:11.683Z,15.50
2018-05-07T07:32:39.986Z,15.90
2018-05-07T07:35:07.540Z,15.90
2018-05-07T07:37:35.088Z,16.10
2018-05-07T07:40:02.699Z,16.40
2018-05-07T07:42:30.250Z,16.80
2018-05-07T07:44:57.798Z,17.00
2018-05-07T07:47:25.355Z,17.20
2018-05-07T07:49:52.899Z,17.40
2018-05-07T07:52:20.431Z,17.60
2018-05-07T07:54:48.004Z,17.80
2018-05-07T07:57:15.544Z,17.90
2018-05-07T07:59:52.781Z,18.00
2018-05-07T08:02:20.333Z,18.10
2018-05-07T08:04:47.871Z,18.20
2018-05-07T08:07:15.426Z,18.30
2018-05-07T08:09:42.944Z,18.30
2018-05-07T08:12:10.539Z,18.50
2018-05-07T08:14:38.053Z,18.50
2018-05-07T08:17:05.584Z,18.50
2018-05-07T08:19:33.149Z,18.70
2018-05-07T08:22:01.516Z,18.90
2018-05-07T08:24:29.058Z,18.90
2018-05-07T08:26:56.617Z,19.10
2018-05-07T08:29:24.156Z,19.20
2018-05-07T08:31:51.773Z,19.30
2018-05-07T08:34:20.090Z,19.50
2018-05-07T08:36:47.707Z,19.50
2018-05-07T08:39:15.235Z,19.50
2018-05-07T08:41:42.783Z,19.50
2018-05-07T08:44:10.308Z,19.40
2018-05-07T08:46:37.843Z,19.50
2018-05-07T08:49:05.415Z,19.60
2018-05-07T08:51:32.941Z,19.70
2018-05-07T08:54:00.480Z,19.70
2018-05-07T08:56:28.022Z,19.70
2018-05-07T08:58:55.559Z,19.60
2018-05-07T09:01:23.114Z,19.60
2018-05-07T09:03:50.666Z,19.60
2018-05-07T09:06:18.209Z,19.70
2018-05-07T09:08:46.504Z,19.80
2018-05-07T09:11:14.060Z,19.80
2018-05-07T09:13:41.619Z,19.80
2018-05-07T09:16:09.170Z,19.70
2018-05-07T09:18:36.743Z,19.70
2018-05-07T09:21:04.301Z,19.90
2018-05-07T09:23:31.859Z,20.10
2018-05-07T09:25:59.419Z,20.10
2018-05-07T09:28:26.961Z,20.20
2018-05-07T09:30:55.266Z,20.40
2018-05-07T09:33:22.852Z,20.40
2018-05-07T09:35:50.374Z,20.50
2018-05-07T09:38:17.905Z,20.60
2018-05-07T09:41:04.954Z,20.80
2018-05-07T09:43:32.474Z,20.80
2018-05-07T09:46:00.027Z,20.90
2018-05-07T09:48:27.627Z,21.00
2018-05-07T09:50:55.174Z,21.00
2018-05-07T09:53:22.723Z,21.00
2018-05-07T09:55:50.315Z,21.20
2018-05-07T09:58:17.862Z,21.40
2018-05-07T10:00:45.525Z,21.50
2018-05-07T10:03:13.092Z,21.50
2018-05-07T10:05:40.617Z,21.60
2018-05-07T10:08:08.148Z,21.80
2018-05-07T10:10:35.696Z,21.70
2018-05-07T10:13:03.215Z,21.70
2018-05-07T10:15:30.786Z,21.70
2018-05-07T10:17:58.355Z,21.80
2018-05-07T10:20:25.885Z,21.80
2018-05-07T10:22:53.445Z,21.90
2018-05-07T10:25:20.997Z,21.90
2018-05-07T10:27:49.294Z,21.90
2018-05-07T10:30:16.856Z,21.90
2018-05-07T10:32:44.462Z,22.00
2018-05-07T10:35:11.992Z,22.20
2018-05-07T10:37:39.524Z,22.30
2018-05-07T10:40:07.066Z,22.40
2018-05-07T10:42:35.395Z,22.30
2018-05-07T10:45:02.933Z,22.30
2018-05-07T10:47:30.494Z,22.30
2018-05-07T10:49:58.051Z,22.40
2018-05-07T10:52:26.410Z,22.60
2018-05-07T10:54:53.964Z,22.60
2018-05-07T10:57:22.277Z,22.70
2018-05-07T10:59:54.924Z,22.70
2018-05-07T11:02:22.455Z,22.60
2018-05-07T11:04:50.006Z,22.70
2018-05-07T11:07:17.565Z,22.70
2018-05-07T11:09:54.693Z,22.70
2018-05-07T11:12:22.237Z,23.00
2018-05-07T11:14:49.787Z,23.10
2018-05-07T11:17:17.372Z,23.20
2018-05-07T11:19:44.985Z,23.30
2018-05-07T11:22:12.450Z,23.40
2018-05-07T11:24:39.975Z,23.50
2018-05-07T11:27:07.518Z,23.60
2018-05-07T11:29:35.048Z,23.60
2018-05-07T11:32:03.344Z,23.70
2018-05-07T11:34:30.910Z,23.70
2018-05-07T11:36:58.441Z,23.80
2018-05-07T11:39:25.995Z,23.70
2018-05-07T11:41:54.364Z,23.80
2018-05-07T11:44:22.719Z,23.90
2018-05-07T11:46:50.266Z,23.90
2018-05-07T11:49:17.819Z,24.10
2018-05-07T11:51:45.358Z,24.30
2018-05-07T11:54:12.884Z,24.40
2018-05-07T11:56:41.220Z,24.50
2018-05-07T11:59:08.755Z,24.50
2018-05-07T12:01:36.291Z,24.70
2018-05-07T12:04:03.852Z,25.00
2018-05-07T12:06:32.292Z,24.90
2018-05-07T12:08:59.840Z,24.80
2018-05-07T12:11:27.387Z,24.80
2018-05-07T12:13:54.911Z,24.80
2018-05-07T12:16:22.503Z,24.90
2018-05-07T12:18:50.060Z,24.90
2018-05-07T12:21:22.782Z,24.90
2018-05-07T12:23:51.119Z,25.00
2018-05-07T12:26:18.634Z,25.00
2018-05-07T12:28:46.162Z,24.90
2018-05-07T12:31:13.953Z,25.10
2018-05-07T12:33:41.407Z,25.30
2018-05-07T12:36:08.948Z,25.30
2018-05-07T12:38:36.515Z,25.30
2018-05-07T12:41:04.903Z,25.40
2018-05-07T12:43:32.422Z,25.40
2018-05-07T12:46:00.055Z,25.30
2018-05-07T12:48:27.588Z,25.10
2018-05-07T12:50:55.335Z,25.10
2018-05-07T12:53:22.895Z,24.70
2018-05-07T12:55:51.187Z,24.50
2018-05-07T12:58:18.716Z,24.50
2018-05-07T13:00:46.432Z,24.20
2018-05-07T13:03:13.950Z,24.10
2018-05-07T13:05:42.267Z,23.70
2018-05-07T13:08:09.822Z,23.70
2018-05-07T13:10:37.435Z,23.60
2018-05-07T13:13:05.003Z,23.50
2018-05-07T13:15:32.571Z,23.50
2018-05-07T13:18:00.292Z,23.50
2018-05-07T13:20:27.907Z,23.50
2018-05-07T13:22:55.464Z,23.30
2018-05-07T13:25:23.011Z,23.40
2018-05-07T13:27:50.589Z,23.30
2018-05-07T13:30:18.344Z,23.30
2018-05-07T13:32:45.915Z,23.20
2018-05-07T13:35:13.447Z,22.90
2018-05-07T13:37:41.012Z,22.70
2018-05-07T13:40:08.568Z,22.60
2018-05-07T13:42:36.891Z,22.20
2018-05-07T13:45:04.414Z,22.20
2018-05-07T13:47:31.956Z,22.10
2018-05-07T13:49:59.507Z,22.10
2018-05-07T13:52:27.050Z,21.80
2018-05-07T13:54:54.574Z,21.30
2018-05-07T13:57:22.111Z,20.90
2018-05-07T13:59:49.667Z,20.50
2018-05-07T14:02:17.195Z,20.10
2018-05-07T14:04:44.703Z,20.00
2018-05-07T14:07:12.226Z,19.80
2018-05-07T14:09:40.538Z,19.60
2018-05-07T14:12:08.063Z,19.60
2018-05-07T14:14:36.378Z,19.10
2018-05-07T14:17:03.932Z,18.90
2018-05-07T14:19:31.459Z,18.60
2018-05-07T14:21:59.017Z,18.30
2018-05-07T14:24:26.553Z,18.20
2018-05-07T14:26:54.088Z,18.10
2018-05-07T14:29:21.626Z,18.10
2018-05-07T14:31:49.154Z,17.90
2018-05-07T14:34:16.675Z,17.70
2018-05-07T14:36:44.268Z,17.70
2018-05-07T14:39:12.568Z,17.70
2018-05-07T14:41:40.140Z,17.70
2018-05-07T14:44:07.683Z,17.80
2018-05-07T14:46:35.219Z,17.80
2018-05-07T14:49:02.796Z,17.90
2018-05-07T14:51:30.317Z,18.00
2018-05-07T14:53:57.830Z,18.10
2018-05-07T14:56:25.365Z,18.00
2018-05-07T14:58:52.919Z,18.10
2018-05-07T15:01:21.228Z,18.30
2018-05-07T15:03:48.753Z,18.30
2018-05-07T15:06:17.061Z,18.70
2018-05-07T15:08:44.564Z,18.60
2018-05-07T15:11:12.099Z,18.90
2018-05-07T15:13:39.649Z,19.10
2018-05-07T15:16:07.178Z,19.20
2018-05-07T15:18:34.717Z,19.30
2018-05-07T15:21:16.576Z,19.40
2018-05-07T15:23:44.176Z,19.50
2018-05-07T15:26:12.471Z,19.70
2018-05-07T15:28:40.008Z,19.60
2018-05-07T15:31:08.311Z,19.50
2018-05-07T15:33:35.877Z,19.50
2018-05-07T15:36:03.399Z,19.50
2018-05-07T15:38:30.924Z,19.60
2018-05-07T15:40:58.495Z,19.70
2018-05-07T15:43:26.009Z,19.80
2018-05-07T15:45:53.539Z,19.90
2018-05-07T15:48:21.070Z,20.10
2018-05-07T15:50:48.599Z,20.00
2018-05-07T15:53:16.127Z,20.10
2018-05-07T15:55:43.702Z,20.20
2018-05-07T15:58:11.217Z,20.30
2018-05-07T16:00:38.764Z,20.30
2018-05-07T16:03:07.133Z,20.30
2018-05-07T16:05:34.635Z,20.30
2018-05-07T16:08:02.150Z,20.30
2018-05-07T16:10:29.684Z,20.40
2018-05-07T16:12:57.235Z,20.50
2018-05-07T16:15:24.811Z,20.60
2018-05-07T16:17:52.332Z,20.70
2018-05-07T16:20:19.868Z,20.70
2018-05-07T16:22:47.423Z,20.80
2018-05-07T16:25:15.719Z,20.70
2018-05-07T16:27:43.264Z,20.70
2018-05-07T16:30:10.827Z,20.70
2018-05-07T16:32:38.363Z,20.80
2018-05-07T16:35:05.903Z,20.80
2018-05-07T16:37:33.467Z,20.70
2018-05-07T16:40:01.048Z,20.60
2018-05-07T16:42:29.360Z,20.60
2018-05-07T16:44:56.929Z,20.60
2018-05-07T16:47:24.456Z,20.70
2018-05-07T16:49:52.734Z,20.50
2018-05-07T16:52:20.279Z,20.50
2018-05-07T16:54:48.599Z,20.40
2018-05-07T16:57:16.143Z,20.40
2018-05-07T16:59:43.698Z,20.40
2018-05-07T17:02:11.238Z,20.50
2018-05-07T17:04:38.782Z,20.50
2018-05-07T17:07:06.377Z,20.50
2018-05-07T17:09:33.900Z,20.50
2018-05-07T17:12:01.427Z,20.40
2018-05-07T17:14:28.972Z,20.30
2018-05-07T17:16:56.516Z,20.30
2018-05-07T17:19:24.051Z,20.20
2018-05-07T17:21:52.435Z,20.10
2018-05-07T17:24:20.084Z,20.10
2018-05-07T17:26:47.577Z,20.10
2018-05-07T17:29:15.113Z,20.00
2018-05-07T17:31:56.974Z,19.80
2018-05-07T17:34:24.547Z,19.70
2018-05-07T17:36:52.067Z,19.70
2018-05-07T17:39:19.609Z,19.60
2018-05-07T17:41:47.137Z,19.50
2018-05-07T17:44:26.400Z,19.30
2018-05-07T17:47:05.559Z,19.10
2018-05-07T17:49:33.129Z,18.90
2018-05-07T17:52:00.672Z,18.80
2018-05-07T17:54:28.247Z,18.70
2018-05-07T17:56:55.832Z,18.60
2018-05-07T17:59:24.131Z,18.60
2018-05-07T18:01:51.656Z,18.50
2018-05-07T18:04:19.246Z,18.60
2018-05-07T18:06:46.787Z,18.70
2018-05-07T18:09:14.305Z,18.60
2018-05-07T18:11:41.871Z,18.70
2018-05-07T18:14:09.399Z,18.70
2018-05-07T18:16:36.973Z,18.70
2018-05-07T18:19:04.515Z,18.50
2018-05-07T18:21:32.039Z,18.50
2018-05-07T18:24:00.362Z,18.30
2018-05-07T18:26:27.953Z,18.30
2018-05-07T18:28:55.420Z,18.20
2018-05-07T18:31:23.023Z,18.20
2018-05-07T18:33:50.546Z,18.10
2018-05-07T18:36:18.115Z,18.00
2018-05-07T18:38:45.684Z,18.00
2018-05-07T18:41:13.244Z,17.90
2018-05-07T18:43:40.786Z,17.90
2018-05-07T18:46:08.447Z,17.90
2018-05-07T18:48:36.790Z,17.90
2018-05-07T18:51:04.331Z,18.10
2018-05-07T18:53:31.852Z,18.20
2018-05-07T18:55:59.407Z,18.10
2018-05-07T18:58:27.691Z,18.10
2018-05-07T19:03:57.688Z,17.90
2018-05-07T19:06:25.265Z,18.00
2018-05-07T19:08:53.576Z,18.00
2018-05-07T19:11:21.307Z,18.00
2018-05-07T19:13:48.882Z,18.00
2018-05-07T19:16:16.462Z,18.00
2018-05-07T19:18:44.005Z,18.00
2018-05-07T19:21:31.038Z,18.00
2018-05-07T19:23:58.562Z,18.10
2018-05-07T19:26:26.862Z,18.20
2018-05-07T19:28:54.430Z,18.10
2018-05-07T19:31:36.227Z,18.20
2018-05-07T19:34:03.771Z,18.20
2018-05-07T19:36:31.291Z,18.20
2018-05-07T19:38:58.811Z,18.10
2018-05-07T19:41:31.373Z,18.10
2018-05-07T19:43:58.899Z,18.00
2018-05-07T19:46:27.191Z,18.00
2018-05-07T19:48:54.737Z,18.00
2018-05-07T19:51:23.027Z,18.00
2018-05-07T19:53:50.694Z,18.00
2018-05-07T19:56:18.223Z,18.00
2018-05-07T19:58:45.758Z,17.90
2018-05-07T20:01:13.319Z,17.80
2018-05-07T20:03:40.835Z,17.80
2018-05-07T20:06:08.350Z,17.80
2018-05-07T20:08:35.894Z,17.80
2018-05-07T20:11:03.439Z,17.80
2018-05-07T20:13:30.969Z,17.80
2018-05-07T20:15:58.536Z,17.90
2018-05-07T20:18:26.831Z,17.90
2018-05-07T20:20:54.400Z,17.90
2018-05-07T20:23:21.984Z,18.00
2018-05-07T20:25:50.278Z,18.10
2018-05-07T20:28:18.583Z,18.10
2018-05-07T20:30:46.314Z,18.10
2018-05-07T20:33:14.673Z,18.10
2018-05-07T20:35:42.203Z,18.10
2018-05-07T20:38:09.727Z,18.10
2018-05-07T20:41:01.071Z,18.20
2018-05-07T20:43:28.634Z,18.10
2018-05-07T20:45:56.146Z,18.10
2018-05-07T20:48:23.683Z,18.20
2018-05-07T20:50:51.230Z,18.40
2018-05-07T20:53:18.756Z,18.50
2018-05-07T20:55:46.286Z,18.70
2018-05-07T20:58:13.824Z,19.00
2018-05-07T21:00:55.689Z,19.20
2018-05-07T21:03:23.240Z,19.30
2018-05-07T21:05:50.818Z,19.60
2018-05-07T21:08:18.336Z,19.70
2018-05-07T21:10:55.699Z,19.70
2018-05-07T21:13:23.235Z,19.80
2018-05-07T21:15:50.754Z,19.90
2018-05-07T21:18:18.319Z,20.00
2018-05-07T21:20:45.838Z,20.00
2018-05-07T21:23:13.383Z,20.00
2018-05-07T21:25:40.940Z,20.00
2018-05-07T21:28:08.466Z,19.90
2018-05-07T21:30:36.204Z,19.90
2018-05-07T21:33:03.779Z,19.80
2018-05-07T21:35:31.288Z,19.80
2018-05-07T21:37:58.843Z,19.80
2018-05-07T21:40:26.388Z,19.80
2018-05-07T21:42:54.689Z,19.80
2018-05-07T21:45:22.268Z,19.80
2018-05-07T21:47:50.557Z,19.90
2018-05-07T21:50:18.067Z,19.90
2018-05-07T21:52:45.623Z,19.90
2018-05-07T21:55:13.910Z,19.90
2018-05-07T21:57:41.432Z,19.90
2018-05-07T22:00:09.003Z,19.90
2018-05-07T22:02:36.530Z,20.00
2018-05-07T22:05:04.091Z,19.90
2018-05-07T22:07:31.632Z,19.50
2018-05-07T22:09:59.188Z,19.50
2018-05-07T22:12:26.809Z,19.60
2018-05-07T22:14:54.260Z,19.70
2018-05-07T22:17:22.593Z,19.60
2018-05-07T22:19:50.120Z,19.60
2018-05-07T22:22:17.751Z,19.60
2018-05-07T22:24:45.286Z,19.60
2018-05-07T22:27:12.830Z,19.60
2018-05-07T22:29:40.364Z,19.60
2018-05-07T22:32:13.133Z,19.60
2018-05-07T22:34:40.658Z,19.40
2018-05-07T22:37:08.174Z,19.30
2018-05-07T22:39:35.686Z,19.30
2018-05-07T22:42:27.885Z,19.40
2018-05-07T22:44:55.407Z,19.40
2018-05-07T22:47:22.939Z,19.40
2018-05-07T22:49:50.696Z,19.50
2018-05-07T22:52:18.093Z,19.50
2018-05-07T22:54:45.615Z,19.40
2018-05-07T22:57:13.203Z,19.30
2018-05-07T22:59:40.725Z,19.20
2018-05-07T23:02:08.260Z,19.20
2018-05-07T23:04:35.827Z,19.10
2018-05-07T23:07:03.352Z,18.80
2018-05-07T23:09:30.878Z,18.60
2018-05-07T23:12:13.537Z,18.70
2018-05-07T23:14:41.068Z,18.70
2018-05-07T23:17:08.615Z,18.80
2018-05-07T23:19:36.148Z,18.80
2018-05-07T23:22:03.685Z,18.80
2018-05-07T23:24:31.247Z,18.70
2018-05-07T23:26:58.763Z,18.70
2018-05-07T23:29:26.299Z,18.80
2018-05-07T23:31:53.878Z,18.80
2018-05-07T23:34:21.430Z,18.90
2018-05-07T23:36:48.954Z,19.00
2018-05-07T23:39:16.556Z,19.20
2018-05-07T23:41:44.283Z,19.30
2018-05-07T23:44:11.816Z,19.20
2018-05-07T23:46:39.349Z,19.20
2018-05-07T23:49:06.877Z,19.20
2018-05-07T23:51:35.179Z,19.20
2018-05-07T23:54:02.745Z,19.20
2018-05-07T23:56:30.262Z,19.30
2018-05-07T23:58:57.795Z,19.30
